Time;durP1;ratioP1;P1;durP2;ratioP2;P2;SDS_P1;SDS_P2;PMS_P1;PMS_P2;Temp;Humidity;BMP_temperature;BMP_pressure;BME280_temperature;BME280_humidity;BME280_pressure;Samples;Min_cycle;Max_cycle;Signal;HPM_P1;HPM_P2
2023/03/27 00:01:17;;;;;;;2.60;1.87;;;;;;;;;;10566857;28;20902;-86
2023/03/27 00:06:23;;;;;;;2.20;2.00;;;;;;;;;;10555500;28;20423;-86
2023/03/27 00:11:25;;;;;;;1.80;1.70;;;;;;;;;;10543667;28;20428;-86
2023/03/27 00:16:29;;;;;;;2.25;1.95;;;;;;;;;;10543057;28;20412;-86
2023/03/27 00:21:31;;;;;;;2.15;1.95;;;;;;;;;;10558567;28;20398;-86
2023/03/27 00:26:32;;;;;;;2.05;1.83;;;;;;;;;;10575364;22;20901;-86
2023/03/27 00:31:36;;;;;;;2.25;1.85;;;;;;;;;;10575468;28;20476;-86
2023/03/27 00:36:38;;;;;;;2.47;2.10;;;;;;;;;;10575413;28;20430;-86
2023/03/27 00:41:40;;;;;;;2.42;2.15;;;;;;;;;;10576211;28;20400;-86
2023/03/27 00:46:44;;;;;;;3.30;3.00;;;;;;;;;;10579183;28;20448;-86
2023/03/27 00:51:47;;;;;;;4.80;3.50;;;;;;;;;;10576706;28;20395;-86
2023/03/27 00:56:49;;;;;;;4.53;4.10;;;;;;;;;;10575571;28;20497;-86
2023/03/27 01:01:52;;;;;;;4.88;4.07;;;;;;;;;;10573334;28;20406;-87
2023/03/27 01:06:56;;;;;;;5.55;4.82;;;;;;;;;;10574229;28;20820;-86
2023/03/27 01:12:21;;;;;;;5.50;4.50;;;;;;;;;;10575190;28;20473;-87
2023/03/27 01:17:40;;;;;;;4.93;4.30;;;;;;;;;;10571371;28;20581;-85
2023/03/27 01:23:03;;;;;;;5.25;4.43;;;;;;;;;;10574283;28;20758;-87
2023/03/27 01:28:23;;;;;;;4.82;4.32;;;;;;;;;;10571584;28;20521;-86
2023/03/27 01:33:51;;;;;;;5.87;4.30;;;;;;;;;;10573561;28;20399;-87
2023/03/27 01:39:26;;;;;;;5.40;4.47;;;;;;;;;;10568009;28;20426;-85
2023/03/27 01:44:33;;;;;;;5.83;4.43;;;;;;;;;;10574443;28;20513;-86
2023/03/27 01:49:41;;;;;;;5.00;4.15;;;;;;;;;;10576225;28;20394;-86
2023/03/27 01:54:49;;;;;;;5.07;4.50;;;;;;;;;;10573245;28;20866;-86
2023/03/27 01:59:55;;;;;;;6.07;4.50;;;;;;;;;;10568808;28;20813;-86
2023/03/27 02:05:02;;;;;;;5.33;4.50;;;;;;;;;;10571032;28;20594;-86
2023/03/27 02:10:11;;;;;;;5.57;4.55;;;;;;;;;;10574080;28;20491;-86
2023/03/27 02:15:18;;;;;;;5.80;4.45;;;;;;;;;;10571322;28;20438;-86
2023/03/27 02:20:20;;;;;;;3.95;3.42;;;;;;;;;;10570608;28;20792;-86
2023/03/27 02:25:26;;;;;;;3.85;3.30;;;;;;;;;;10573944;28;20422;-87
2023/03/27 02:30:35;;;;;;;3.03;2.77;;;;;;;;;;10571186;28;20407;-86
2023/03/27 02:35:43;;;;;;;3.50;2.90;;;;;;;;;;10581544;28;20401;-86
2023/03/27 02:40:54;;;;;;;4.45;2.97;;;;;;;;;;10576893;28;20471;-87
2023/03/27 02:46:01;;;;;;;3.22;2.92;;;;;;;;;;10578963;28;20424;-86
2023/03/27 02:51:09;;;;;;;3.30;3.00;;;;;;;;;;10583162;28;20489;-86
2023/03/27 02:56:15;;;;;;;3.88;2.72;;;;;;;;;;10578255;28;20425;-86
2023/03/27 03:01:19;;;;;;;4.20;3.10;;;;;;;;;;10578698;28;20744;-86
2023/03/27 03:06:28;;;;;;;3.40;3.00;;;;;;;;;;10576980;28;20475;-87
2023/03/27 03:11:34;;;;;;;3.97;2.85;;;;;;;;;;10580004;28;20766;-87
2023/03/27 03:16:36;;;;;;;3.42;2.30;;;;;;;;;;10575447;28;20489;-86
2023/03/27 03:21:38;;;;;;;3.08;2.58;;;;;;;;;;10576168;28;20489;-86
2023/03/27 03:26:43;;;;;;;4.32;2.90;;;;;;;;;;10579156;28;20774;-86
2023/03/27 03:31:45;;;;;;;3.40;2.67;;;;;;;;;;10579132;28;20394;-85
2023/03/27 03:36:48;;;;;;;3.67;3.00;;;;;;;;;;10577783;28;20413;-86
2023/03/27 03:41:51;;;;;;;4.80;3.57;;;;;;;;;;10578723;28;20489;-87
2023/03/27 03:46:53;;;;;;;3.80;3.40;;;;;;;;;;10578065;28;20505;-86
2023/03/27 03:51:55;;;;;;;5.97;4.70;;;;;;;;;;10579193;28;20399;-86
2023/03/27 03:56:58;;;;;;;8.75;6.60;;;;;;;;;;10579129;28;20442;-86
2023/03/27 04:02:00;;;;;;;11.77;8.13;;;;;;;;;;10577306;28;20398;-86
2023/03/27 04:07:04;;;;;;;9.73;7.32;;;;;;;;;;10577603;28;20963;-86
2023/03/27 04:12:08;;;;;;;11.90;8.43;;;;;;;;;;10577385;28;20398;-86
2023/03/27 04:17:11;;;;;;;11.60;8.60;;;;;;;;;;10559227;28;20490;-86
2023/03/27 04:22:16;;;;;;;13.50;9.68;;;;;;;;;;10575417;28;20449;-86
2023/03/27 04:27:20;;;;;;;15.83;9.90;;;;;;;;;;10577578;28;20916;-86
2023/03/27 04:32:25;;;;;;;14.57;9.35;;;;;;;;;;10575110;28;20442;-85
2023/03/27 04:37:27;;;;;;;17.48;11.07;;;;;;;;;;10573777;28;20419;-87
2023/03/27 04:42:31;;;;;;;16.60;10.80;;;;;;;;;;10576532;28;20395;-86
2023/03/27 04:47:36;;;;;;;20.23;12.20;;;;;;;;;;10575794;28;21130;-86
2023/03/27 04:52:38;;;;;;;17.55;11.13;;;;;;;;;;10575767;28;20432;-86
2023/03/27 04:57:45;;;;;;;18.70;12.38;;;;;;;;;;10573096;28;20451;-86
2023/03/27 05:02:48;;;;;;;19.75;12.13;;;;;;;;;;10565283;28;20423;-86
2023/03/27 05:07:50;;;;;;;14.57;10.45;;;;;;;;;;10552382;27;20829;-86
2023/03/27 05:12:53;;;;;;;15.40;10.85;;;;;;;;;;10554605;28;20424;-86
2023/03/27 05:17:55;;;;;;;15.15;10.65;;;;;;;;;;10555904;28;20947;-87
2023/03/27 05:22:57;;;;;;;14.65;10.90;;;;;;;;;;10556451;28;20456;-86
2023/03/27 05:28:00;;;;;;;14.10;10.60;;;;;;;;;;10565472;28;20782;-85
2023/03/27 05:33:02;;;;;;;15.43;10.45;;;;;;;;;;10554410;28;20434;-87
2023/03/27 05:38:05;;;;;;;13.77;9.77;;;;;;;;;;10550831;28;21071;-86
2023/03/27 05:43:08;;;;;;;13.43;10.18;;;;;;;;;;10553127;27;20417;-87
2023/03/27 05:48:10;;;;;;;14.63;10.13;;;;;;;;;;10560127;28;20414;-85
2023/03/27 05:53:12;;;;;;;13.67;10.43;;;;;;;;;;10574136;28;20408;-84
2023/03/27 05:58:16;;;;;;;14.13;10.50;;;;;;;;;;10571747;28;20789;-87
2023/03/27 06:03:19;;;;;;;14.52;11.90;;;;;;;;;;10572677;28;20486;-87
2023/03/27 06:08:21;;;;;;;14.70;10.10;;;;;;;;;;10570465;28;20423;-88
2023/03/27 06:13:24;;;;;;;14.47;10.47;;;;;;;;;;10565059;28;20426;-87
2023/03/27 06:18:26;;;;;;;15.67;10.30;;;;;;;;;;10553819;28;20396;-86
2023/03/27 06:23:28;;;;;;;14.17;10.07;;;;;;;;;;10564834;28;20937;-86
2023/03/27 06:28:32;;;;;;;15.47;10.70;;;;;;;;;;10571922;28;20514;-86
2023/03/27 06:33:34;;;;;;;14.07;9.40;;;;;;;;;;10570940;28;20398;-87
2023/03/27 06:38:37;;;;;;;14.63;10.27;;;;;;;;;;10570827;28;20437;-86
2023/03/27 06:43:40;;;;;;;15.63;9.88;;;;;;;;;;10566638;28;20406;-86
2023/03/27 06:48:42;;;;;;;11.05;7.95;;;;;;;;;;10565896;28;20517;-87
2023/03/27 06:53:45;;;;;;;8.18;6.28;;;;;;;;;;10576394;28;20900;-86
2023/03/27 06:58:48;;;;;;;10.55;7.50;;;;;;;;;;10568792;28;20411;-86
2023/03/27 07:03:50;;;;;;;12.48;8.15;;;;;;;;;;10572083;28;20398;-87
2023/03/27 07:08:52;;;;;;;14.67;9.73;;;;;;;;;;10573372;28;20502;-85
2023/03/27 07:13:55;;;;;;;14.77;10.52;;;;;;;;;;10568929;28;20490;-86
2023/03/27 07:18:57;;;;;;;15.25;9.98;;;;;;;;;;10575287;28;20402;-86
2023/03/27 07:23:59;;;;;;;14.18;9.95;;;;;;;;;;10580399;28;20481;-86
2023/03/27 07:29:04;;;;;;;13.70;9.90;;;;;;;;;;10578361;28;20422;-86
2023/03/27 07:34:07;;;;;;;13.82;10.00;;;;;;;;;;10577822;28;20478;-86
2023/03/27 07:39:10;;;;;;;14.10;10.07;;;;;;;;;;10580021;28;20411;-86
2023/03/27 07:44:14;;;;;;;14.55;10.23;;;;;;;;;;10576196;28;20489;-85
2023/03/27 07:49:16;;;;;;;15.95;10.98;;;;;;;;;;10579293;28;20450;-86
2023/03/27 07:54:20;;;;;;;14.85;10.20;;;;;;;;;;10579821;28;20409;-86
2023/03/27 07:59:24;;;;;;;15.97;11.20;;;;;;;;;;10578571;28;20398;-86
2023/03/27 08:04:26;;;;;;;15.65;10.70;;;;;;;;;;10579048;28;20485;-86
2023/03/27 08:09:28;;;;;;;16.50;11.50;;;;;;;;;;10578468;28;20457;-85
2023/03/27 08:14:31;;;;;;;17.20;11.57;;;;;;;;;;10575265;28;20395;-87
2023/03/27 08:19:33;;;;;;;15.68;11.50;;;;;;;;;;10576017;28;20395;-85
2023/03/27 08:24:36;;;;;;;17.75;11.40;;;;;;;;;;10577857;28;20838;-86
2023/03/27 08:29:39;;;;;;;13.43;9.10;;;;;;;;;;10575494;28;20426;-87
2023/03/27 08:34:41;;;;;;;13.17;8.97;;;;;;;;;;10577310;28;20402;-86
2023/03/27 08:39:45;;;;;;;13.57;9.03;;;;;;;;;;10576653;28;20395;-86
2023/03/27 08:44:53;;;;;;;12.73;8.93;;;;;;;;;;10575114;28;20464;-85
2023/03/27 08:49:58;;;;;;;12.37;8.57;;;;;;;;;;10577175;28;20418;-86
2023/03/27 08:55:05;;;;;;;12.70;7.23;;;;;;;;;;10573153;28;20453;-86
2023/03/27 09:00:18;;;;;;;11.83;8.50;;;;;;;;;;10576431;28;20386;-86
2023/03/27 09:05:24;;;;;;;11.00;7.70;;;;;;;;;;10575622;28;20917;-86
2023/03/27 09:10:35;;;;;;;12.23;8.00;;;;;;;;;;10574354;28;20755;-86
2023/03/27 09:15:45;;;;;;;10.27;7.28;;;;;;;;;;10573589;28;20481;-86
2023/03/27 09:20:51;;;;;;;10.27;7.90;;;;;;;;;;10575170;28;20402;-86
2023/03/27 09:25:57;;;;;;;12.07;7.43;;;;;;;;;;10574912;28;20417;-86
2023/03/27 09:31:16;;;;;;;12.23;7.72;;;;;;;;;;10572816;28;20894;-86
2023/03/27 09:36:17;;;;;;;10.82;7.70;;;;;;;;;;10575368;28;20413;-86
2023/03/27 09:41:24;;;;;;;10.50;8.13;;;;;;;;;;10574363;28;20477;-86
2023/03/27 09:46:28;;;;;;;9.53;7.00;;;;;;;;;;10573323;28;20468;-86
2023/03/27 09:51:41;;;;;;;9.85;7.22;;;;;;;;;;10573848;28;20503;-86
2023/03/27 09:56:47;;;;;;;12.00;8.20;;;;;;;;;;10574193;28;20394;-86
2023/03/27 10:01:51;;;;;;;10.73;8.57;;;;;;;;;;10571251;28;20751;-85
2023/03/27 10:07:04;;;;;;;11.68;8.60;;;;;;;;;;10575419;28;20794;-86
2023/03/27 10:12:16;;;;;;;13.23;9.07;;;;;;;;;;10574291;28;20438;-86
2023/03/27 10:17:25;;;;;;;13.75;9.43;;;;;;;;;;10570164;28;20452;-86
2023/03/27 10:22:30;;;;;;;13.48;8.68;;;;;;;;;;10574098;28;20402;-86
2023/03/27 10:27:39;;;;;;;10.53;8.70;;;;;;;;;;10573122;28;20419;-87
2023/03/27 10:32:47;;;;;;;11.27;8.83;;;;;;;;;;10573228;28;20403;-87
2023/03/27 10:37:50;;;;;;;11.20;8.70;;;;;;;;;;10573545;28;20548;-87
2023/03/27 10:42:55;;;;;;;11.47;9.03;;;;;;;;;;10572665;28;20401;-85
2023/03/27 10:48:01;;;;;;;14.67;8.63;;;;;;;;;;10570331;28;20428;-86
2023/03/27 10:53:09;;;;;;;11.30;8.60;;;;;;;;;;10577120;28;20556;-87
2023/03/27 10:58:24;;;;;;;12.30;8.00;;;;;;;;;;10580004;28;20411;-86
2023/03/27 11:03:34;;;;;;;10.03;8.23;;;;;;;;;;10580430;28;21090;-86
2023/03/27 11:08:45;;;;;;;10.60;7.60;;;;;;;;;;10578042;28;20812;-87
2023/03/27 11:13:48;;;;;;;10.03;8.00;;;;;;;;;;10568125;28;20417;-86
2023/03/27 11:18:56;;;;;;;9.93;8.02;;;;;;;;;;10569430;28;20406;-88
2023/03/27 11:24:00;;;;;;;10.07;7.67;;;;;;;;;;10564416;28;20431;-87
2023/03/27 11:29:08;;;;;;;10.80;7.93;;;;;;;;;;10554554;28;20470;-85
2023/03/27 11:34:16;;;;;;;7.97;7.10;;;;;;;;;;10565760;28;20468;-85
2023/03/27 11:39:28;;;;;;;10.77;7.97;;;;;;;;;;10562690;28;20450;-85
2023/03/27 11:44:30;;;;;;;11.80;8.10;;;;;;;;;;10561595;28;20515;-85
2023/03/27 11:50:02;;;;;;;9.13;7.50;;;;;;;;;;10561597;28;20517;-85
2023/03/27 11:55:16;;;;;;;9.88;7.60;;;;;;;;;;10560368;28;20414;-85
2023/03/27 12:00:35;;;;;;;10.50;7.13;;;;;;;;;;10554729;28;20436;-84
2023/03/27 12:05:54;;;;;;;7.00;5.80;;;;;;;;;;10566747;28;20403;-86
2023/03/27 12:10:58;;;;;;;5.55;4.78;;;;;;;;;;10565991;28;20418;-87
2023/03/27 12:16:24;;;;;;;8.85;7.07;;;;;;;;;;10570091;28;20475;-86
2023/03/27 12:21:38;;;;;;;10.00;7.28;;;;;;;;;;10562537;28;20443;-86
2023/03/27 12:27:07;;;;;;;8.57;6.80;;;;;;;;;;10558976;28;20430;-86
2023/03/27 12:32:32;;;;;;;7.90;5.90;;;;;;;;;;10552061;27;20974;-85
2023/03/27 12:37:42;;;;;;;6.63;5.38;;;;;;;;;;10573581;28;20417;-85
2023/03/27 12:42:51;;;;;;;7.40;5.70;;;;;;;;;;10568381;28;20479;-85
2023/03/27 12:48:20;;;;;;;8.80;6.85;;;;;;;;;;10573916;28;20421;-86
2023/03/27 12:53:48;;;;;;;6.65;5.75;;;;;;;;;;10509080;28;20398;-86
2023/03/27 12:58:53;;;;;;;3.25;2.78;;;;;;;;;;10567806;28;20887;-86
2023/03/27 13:04:12;;;;;;;6.77;5.67;;;;;;;;;;10565011;28;20413;-86
2023/03/27 13:09:28;;;;;;;5.93;5.00;;;;;;;;;;10567049;28;20422;-85
2023/03/27 13:14:50;;;;;;;5.97;4.82;;;;;;;;;;10564579;28;20991;-86
2023/03/27 13:19:59;;;;;;;7.38;5.57;;;;;;;;;;10570629;28;20493;-86
2023/03/27 13:25:30;;;;;;;1.92;1.63;;;;;;;;;;10566959;28;20464;-86
2023/03/27 13:30:46;;;;;;;6.47;5.40;;;;;;;;;;10568375;28;20537;-87
2023/03/27 13:36:02;;;;;;;0.83;0.60;;;;;;;;;;10566069;28;20398;-87
2023/03/27 13:41:50;;;;;;;1.10;0.40;;;;;;;;;;10566326;28;20399;-87
2023/03/27 13:46:57;;;;;;;2.70;1.80;;;;;;;;;;10556989;28;20615;-86
2023/03/27 13:52:27;;;;;;;2.60;2.23;;;;;;;;;;10568592;28;20387;-86
2023/03/27 13:57:47;;;;;;;7.75;6.28;;;;;;;;;;10567742;28;20485;-87
2023/03/27 14:03:26;;;;;;;9.05;6.70;;;;;;;;;;10568310;28;20424;-86
2023/03/27 14:08:41;;;;;;;5.38;3.92;;;;;;;;;;10561425;28;20423;-87
2023/03/27 14:14:05;;;;;;;7.40;5.70;;;;;;;;;;10553443;28;20810;-86
2023/03/27 14:19:37;;;;;;;13.48;9.15;;;;;;;;;;10568769;28;20463;-87
2023/03/27 14:24:43;;;;;;;13.45;10.27;;;;;;;;;;10565254;28;20406;-87
2023/03/27 14:29:48;;;;;;;11.43;9.33;;;;;;;;;;10572389;28;20426;-87
2023/03/27 14:34:52;;;;;;;13.10;9.73;;;;;;;;;;10570776;28;20398;-87
2023/03/27 14:39:55;;;;;;;17.77;12.40;;;;;;;;;;10561814;28;20400;-85
2023/03/27 14:45:19;;;;;;;18.23;12.37;;;;;;;;;;10560657;28;20406;-86
2023/03/27 14:50:27;;;;;;;17.33;12.27;;;;;;;;;;10569589;28;20422;-84
2023/03/27 14:55:33;;;;;;;18.17;13.48;;;;;;;;;;10560311;28;20881;-85
2023/03/27 15:00:37;;;;;;;18.90;12.80;;;;;;;;;;10560784;28;20499;-86
2023/03/27 15:05:57;;;;;;;8.70;5.97;;;;;;;;;;10573076;28;21346;-87
2023/03/27 15:10:59;;;;;;;0.40;0.10;;;;;;;;;;10564370;28;20447;-86
2023/03/27 15:16:05;;;;;;;0.50;0.00;;;;;;;;;;10562810;28;20408;-87
2023/03/27 15:21:13;;;;;;;0.43;0.10;;;;;;;;;;10568732;28;20480;-86
2023/03/27 15:26:19;;;;;;;0.70;0.65;;;;;;;;;;10562060;28;20768;-87
2023/03/27 15:31:24;;;;;;;0.70;0.00;;;;;;;;;;10571261;28;20514;-86
2023/03/27 15:36:26;;;;;;;2.33;0.10;;;;;;;;;;10561684;28;20415;-86
2023/03/27 15:41:41;;;;;;;0.10;0.10;;;;;;;;;;10559724;28;20423;-85
2023/03/27 15:46:54;;;;;;;0.60;0.00;;;;;;;;;;10562832;28;20410;-86
2023/03/27 15:51:57;;;;;;;0.20;0.10;;;;;;;;;;10561546;28;20792;-86
2023/03/27 15:57:08;;;;;;;0.50;0.10;;;;;;;;;;10564597;28;20422;-86
2023/03/27 16:02:14;;;;;;;0.80;0.10;;;;;;;;;;10561526;28;20449;-86
2023/03/27 16:07:28;;;;;;;0.70;0.20;;;;;;;;;;10561199;28;20408;-86
2023/03/27 16:12:32;;;;;;;22.23;0.93;;;;;;;;;;10558861;28;20404;-87
2023/03/27 16:17:43;;;;;;;1.10;0.20;;;;;;;;;;10561041;28;20501;-86
2023/03/27 16:22:45;;;;;;;0.13;0.10;;;;;;;;;;10566747;28;20403;-86
2023/03/27 16:27:49;;;;;;;0.32;0.10;;;;;;;;;;10563947;28;20422;-86
2023/03/27 16:32:52;;;;;;;0.20;0.20;;;;;;;;;;10562847;28;20415;-86
2023/03/27 16:37:55;;;;;;;0.20;0.10;;;;;;;;;;10559369;28;20400;-86
2023/03/27 16:42:57;;;;;;;0.38;0.20;;;;;;;;;;10555191;28;20421;-86
2023/03/27 16:48:00;;;;;;;1.20;0.20;;;;;;;;;;10565015;28;20424;-86
2023/03/27 16:53:02;;;;;;;1.10;0.30;;;;;;;;;;10561980;28;20406;-87
2023/03/27 16:58:04;;;;;;;0.65;0.40;;;;;;;;;;10559625;28;20410;-87
2023/03/27 17:03:07;;;;;;;0.22;0.20;;;;;;;;;;10566592;28;20406;-87
2023/03/27 17:08:09;;;;;;;0.70;0.10;;;;;;;;;;10565717;28;20422;-87
2023/03/27 17:13:11;;;;;;;0.50;0.32;;;;;;;;;;10574480;28;20455;-86
2023/03/27 17:18:17;;;;;;;1.38;0.30;;;;;;;;;;10561611;28;20496;-86
2023/03/27 17:23:18;;;;;;;0.93;0.30;;;;;;;;;;10566434;28;20415;-87
2023/03/27 17:28:20;;;;;;;0.20;0.20;;;;;;;;;;10566758;28;20482;-85
2023/03/27 17:33:26;;;;;;;1.40;0.50;;;;;;;;;;10568734;28;20870;-86
2023/03/27 17:38:28;;;;;;;0.35;0.20;;;;;;;;;;10570272;28;20451;-86
2023/03/27 17:43:30;;;;;;;0.20;0.20;;;;;;;;;;10572380;28;20906;-87
2023/03/27 17:48:34;;;;;;;2.58;1.00;;;;;;;;;;10562872;28;20432;-86
2023/03/27 17:53:37;;;;;;;0.80;0.40;;;;;;;;;;10564247;28;20410;-86
2023/03/27 17:58:39;;;;;;;0.43;0.43;;;;;;;;;;10565190;28;20426;-86
2023/03/27 18:03:42;;;;;;;0.50;0.40;;;;;;;;;;10566574;28;20445;-86
2023/03/27 18:08:44;;;;;;;1.42;0.50;;;;;;;;;;10565900;28;20418;-86
2023/03/27 18:13:51;;;;;;;0.20;0.20;;;;;;;;;;10564492;28;20413;-85
2023/03/27 18:18:56;;;;;;;0.75;0.40;;;;;;;;;;10563029;28;20489;-86
2023/03/27 18:23:58;;;;;;;1.00;0.40;;;;;;;;;;10566140;28;20418;-87
2023/03/27 18:29:00;;;;;;;0.57;0.40;;;;;;;;;;10564846;28;20426;-86
2023/03/27 18:34:03;;;;;;;0.77;0.50;;;;;;;;;;10562117;28;21050;-87
2023/03/27 18:39:05;;;;;;;0.75;0.70;;;;;;;;;;10561476;28;20982;-87
2023/03/27 18:44:07;;;;;;;1.10;0.80;;;;;;;;;;10566585;28;20419;-86
2023/03/27 18:49:10;;;;;;;1.92;1.17;;;;;;;;;;10564924;28;20422;-87
2023/03/27 18:54:12;;;;;;;2.03;1.20;;;;;;;;;;10563844;28;20410;-87
2023/03/27 18:59:14;;;;;;;2.10;1.52;;;;;;;;;;10562105;28;20398;-87
2023/03/27 19:04:17;;;;;;;0.70;0.60;;;;;;;;;;10554727;28;20399;-87
2023/03/27 19:09:19;;;;;;;1.20;0.70;;;;;;;;;;10565269;28;20479;-87
2023/03/27 19:14:22;;;;;;;1.37;0.90;;;;;;;;;;10579951;28;21097;-86
2023/03/27 19:19:25;;;;;;;1.00;0.70;;;;;;;;;;10567272;28;20494;-86
2023/03/27 19:24:27;;;;;;;1.13;0.80;;;;;;;;;;10567331;28;20494;-87
2023/03/27 19:29:29;;;;;;;1.75;0.70;;;;;;;;;;10573844;28;20429;-86
2023/03/27 19:34:32;;;;;;;0.90;0.55;;;;;;;;;;10573286;28;20403;-85
2023/03/27 19:39:34;;;;;;;1.63;0.73;;;;;;;;;;10566901;28;20408;-85
2023/03/27 19:44:37;;;;;;;1.20;0.90;;;;;;;;;;10572668;28;20422;-87
2023/03/27 19:49:41;;;;;;;2.17;0.82;;;;;;;;;;10572035;28;20428;-86
2023/03/27 19:54:43;;;;;;;1.10;0.80;;;;;;;;;;10569018;28;20404;-85
2023/03/27 19:59:45;;;;;;;0.90;0.77;;;;;;;;;;10566722;28;20395;-87
2023/03/27 20:04:48;;;;;;;1.52;0.98;;;;;;;;;;10572305;28;20416;-86
2023/03/27 20:09:53;;;;;;;1.20;0.80;;;;;;;;;;10572182;28;20945;-86
2023/03/27 20:14:55;;;;;;;0.70;0.68;;;;;;;;;;10577858;28;20434;-85
2023/03/27 20:19:59;;;;;;;0.73;0.60;;;;;;;;;;10569244;28;20493;-87
2023/03/27 20:25:01;;;;;;;1.63;0.80;;;;;;;;;;10566244;28;20440;-86
2023/03/27 20:30:05;;;;;;;1.20;0.77;;;;;;;;;;10559213;28;20415;-86
2023/03/27 20:35:09;;;;;;;1.57;0.80;;;;;;;;;;10565768;28;20402;-87
2023/03/27 20:40:15;;;;;;;2.60;0.70;;;;;;;;;;10560581;28;20422;-85
2023/03/27 20:45:18;;;;;;;0.60;0.60;;;;;;;;;;10565390;28;20755;-85
2023/03/27 20:50:22;;;;;;;0.93;0.82;;;;;;;;;;10568656;28;20479;-85
2023/03/27 20:55:24;;;;;;;1.75;0.93;;;;;;;;;;10572047;28;20399;-86
2023/03/27 21:00:26;;;;;;;1.70;1.30;;;;;;;;;;10563544;28;20948;-86
2023/03/27 21:05:31;;;;;;;0.85;0.80;;;;;;;;;;10573854;28;20420;-85
2023/03/27 21:10:33;;;;;;;2.30;1.30;;;;;;;;;;10569568;28;20436;-85
2023/03/27 21:15:35;;;;;;;2.92;1.45;;;;;;;;;;10571465;28;20406;-87
2023/03/27 21:20:38;;;;;;;3.20;1.60;;;;;;;;;;10575167;28;20878;-84
2023/03/27 21:25:40;;;;;;;1.52;0.80;;;;;;;;;;10563219;28;20522;-85
2023/03/27 21:30:44;;;;;;;1.87;0.90;;;;;;;;;;10560966;28;20908;-85
2023/03/27 21:35:48;;;;;;;2.00;1.10;;;;;;;;;;10561805;28;20471;-85
2023/03/27 21:40:50;;;;;;;1.90;0.90;;;;;;;;;;10560858;28;20470;-85
2023/03/27 21:45:52;;;;;;;0.57;0.50;;;;;;;;;;10568703;28;20484;-85
2023/03/27 21:50:59;;;;;;;1.77;0.80;;;;;;;;;;10564605;28;20894;-86
2023/03/27 21:56:01;;;;;;;2.53;1.00;;;;;;;;;;10562512;28;20434;-85
2023/03/27 22:01:07;;;;;;;1.00;0.80;;;;;;;;;;10568542;28;20931;-84
2023/03/27 22:06:10;;;;;;;0.90;0.70;;;;;;;;;;10564382;28;20402;-85
2023/03/27 22:11:12;;;;;;;1.85;0.88;;;;;;;;;;10567284;28;20415;-85
2023/03/27 22:16:16;;;;;;;2.78;1.20;;;;;;;;;;10567949;28;20391;-85
2023/03/27 22:21:21;;;;;;;14.77;5.90;;;;;;;;;;10567224;28;20406;-85
2023/03/27 22:26:25;;;;;;;10.63;3.95;;;;;;;;;;10565919;28;20411;-84
2023/03/27 22:31:27;;;;;;;8.27;2.67;;;;;;;;;;10565771;28;20426;-84
2023/03/27 22:36:31;;;;;;;5.22;2.10;;;;;;;;;;10567150;28;20414;-84
2023/03/27 22:41:33;;;;;;;6.20;1.80;;;;;;;;;;10566384;28;20743;-84
2023/03/27 22:46:35;;;;;;;6.07;2.83;;;;;;;;;;10567666;28;20402;-84
2023/03/27 22:51:38;;;;;;;2.17;1.52;;;;;;;;;;10577859;28;20631;-84
2023/03/27 22:56:40;;;;;;;3.47;1.92;;;;;;;;;;10575258;28;20478;-84
2023/03/27 23:01:42;;;;;;;2.53;1.02;;;;;;;;;;10574799;28;20398;-85
2023/03/27 23:06:45;;;;;;;1.50;0.80;;;;;;;;;;10573857;28;20878;-84
2023/03/27 23:11:47;;;;;;;1.67;0.88;;;;;;;;;;10576841;28;20422;-85
2023/03/27 23:16:49;;;;;;;2.43;0.80;;;;;;;;;;10578894;28;20386;-84
2023/03/27 23:21:52;;;;;;;1.40;0.90;;;;;;;;;;10573765;28;20795;-84
2023/03/27 23:26:54;;;;;;;1.30;0.77;;;;;;;;;;10578811;28;20412;-86
2023/03/27 23:31:56;;;;;;;2.45;1.20;;;;;;;;;;10576946;28;20422;-83
2023/03/27 23:36:59;;;;;;;2.38;1.70;;;;;;;;;;10578958;28;20391;-85
2023/03/27 23:42:01;;;;;;;4.03;2.60;;;;;;;;;;10577476;28;20396;-86
2023/03/27 23:47:03;;;;;;;2.35;1.65;;;;;;;;;;10577122;28;20433;-85
2023/03/27 23:52:06;;;;;;;1.38;0.88;;;;;;;;;;10576757;28;20863;-86
2023/03/27 23:57:08;;;;;;;1.83;1.35;;;;;;;;;;10574071;28;20409;-85
